Terminal Aerodrome Forecast
Issued by NWS

Home | Current Version | Previous Version | Text Only | Print | Product List | Glossary On
Versions: 1 2 3 4 5 6 7 8 9 10 11 12 13 14 15 16 17 18 19 20 21 22 23
000
FTUS43 KIND 181700
TAFBMG
TAF
KBMG 181726Z 1818/1918 06007KT P6SM SCT040 SCT250
     FM190100 06003KT P6SM SKC
      TEMPO 1905/1909 4SM BR
     FM190900 06003KT 4SM BR SKC
     FM191400 11008KT P6SM FEW250=

USA.gov is the U.S. government's official web portal to all federal, state and local government web resources and services.